createdAt,value
2022-12-04T00:01:13.783Z,5.78
2022-12-04T00:03:40.831Z,5.80
2022-12-04T00:06:16.976Z,5.84
2022-12-04T00:08:45.195Z,5.82
2022-12-04T00:11:13.888Z,5.76
2022-12-04T00:13:41.573Z,5.76
2022-12-04T00:16:10.951Z,5.86
2022-12-04T00:18:38.000Z,5.78
2022-12-04T00:21:09.431Z,5.77
2022-12-04T00:23:37.565Z,5.75
2022-12-04T00:26:10.488Z,5.78
2022-12-04T00:28:37.870Z,5.71
2022-12-04T00:31:09.480Z,5.66
2022-12-04T00:33:36.680Z,5.72
2022-12-04T00:36:06.582Z,5.72
2022-12-04T00:38:33.380Z,5.68
2022-12-04T00:41:01.058Z,5.71
2022-12-04T00:43:28.668Z,5.74
2022-12-04T00:45:55.556Z,5.72
2022-12-04T00:48:22.816Z,5.70
2022-12-04T00:50:49.739Z,5.65
2022-12-04T00:53:16.467Z,5.61
2022-12-04T00:55:44.428Z,5.58
2022-12-04T00:58:11.510Z,5.56
2022-12-04T01:00:40.683Z,5.51
2022-12-04T01:03:08.743Z,5.50
2022-12-04T01:05:43.858Z,5.53
2022-12-04T01:08:11.945Z,5.54
2022-12-04T01:10:39.840Z,5.55
2022-12-04T01:13:06.543Z,5.62
2022-12-04T01:15:33.662Z,5.66
2022-12-04T01:18:00.363Z,5.64
2022-12-04T01:20:26.969Z,5.55
2022-12-04T01:22:53.588Z,5.51
2022-12-04T01:25:20.432Z,5.48
2022-12-04T01:27:47.329Z,5.52
2022-12-04T01:30:14.100Z,5.63
2022-12-04T01:32:40.804Z,5.59
2022-12-04T01:35:07.803Z,5.66
2022-12-04T01:37:34.518Z,5.71
2022-12-04T01:40:01.170Z,5.66
2022-12-04T01:42:27.818Z,5.68
2022-12-04T01:45:31.252Z,5.68
2022-12-04T01:48:07.004Z,5.67
2022-12-04T01:50:33.771Z,5.72
2022-12-04T01:53:01.087Z,5.73
2022-12-04T01:55:27.982Z,5.72
2022-12-04T01:57:55.767Z,5.71
2022-12-04T02:00:22.410Z,5.69
2022-12-04T02:02:48.990Z,5.69
2022-12-04T02:05:21.788Z,5.67
2022-12-04T02:07:51.433Z,5.68
2022-12-04T02:10:24.396Z,5.69
2022-12-04T02:13:06.519Z,5.73
2022-12-04T02:15:44.020Z,5.73
2022-12-04T02:18:35.528Z,5.76
2022-12-04T02:21:21.151Z,5.75
2022-12-04T02:23:54.727Z,5.75
2022-12-04T02:26:41.075Z,5.75
2022-12-04T02:29:32.413Z,5.72
2022-12-04T02:32:09.476Z,5.71
2022-12-04T02:34:44.140Z,5.70
2022-12-04T02:37:29.916Z,5.69
2022-12-04T02:40:04.795Z,5.67
2022-12-04T02:42:39.235Z,5.70
2022-12-04T02:45:14.320Z,5.72
2022-12-04T02:47:44.235Z,5.74
2022-12-04T02:50:14.755Z,5.77
2022-12-04T02:53:02.639Z,5.76
2022-12-04T02:55:35.475Z,5.85
2022-12-04T02:58:09.427Z,5.82
2022-12-04T03:00:38.267Z,5.75
2022-12-04T03:03:13.944Z,5.69
2022-12-04T03:05:47.798Z,5.65
2022-12-04T03:08:19.771Z,5.67
2022-12-04T03:10:54.251Z,5.68
2022-12-04T03:13:36.817Z,5.70
2022-12-04T03:16:10.436Z,5.74
2022-12-04T03:18:41.815Z,5.74
2022-12-04T03:21:17.731Z,5.73
2022-12-04T03:23:49.308Z,5.72
2022-12-04T03:26:38.748Z,5.68
2022-12-04T03:29:16.108Z,5.77
2022-12-04T03:31:46.933Z,5.70
2022-12-04T03:34:26.748Z,5.67
2022-12-04T03:36:58.843Z,5.64
2022-12-04T03:39:34.971Z,5.63
2022-12-04T03:42:13.554Z,5.58
2022-12-04T03:44:46.519Z,5.53
2022-12-04T03:47:42.879Z,5.54
2022-12-04T03:50:15.058Z,5.56
2022-12-04T03:53:05.505Z,5.69
2022-12-04T03:55:45.207Z,5.73
2022-12-04T03:58:18.666Z,5.67
2022-12-04T04:00:49.386Z,5.56
2022-12-04T04:03:50.814Z,5.66
2022-12-04T04:06:22.013Z,5.69
2022-12-04T04:08:52.374Z,5.69
2022-12-04T04:11:34.999Z,5.71
2022-12-04T04:14:28.391Z,5.74
2022-12-04T04:17:25.315Z,5.72
2022-12-04T04:20:22.160Z,5.56
2022-12-04T04:23:10.547Z,5.39
2022-12-04T04:25:40.430Z,5.33
2022-12-04T04:28:47.341Z,5.31
2022-12-04T04:31:26.392Z,5.40
2022-12-04T04:34:16.329Z,5.36
2022-12-04T04:36:59.741Z,5.37
2022-12-04T04:40:00.029Z,5.33
2022-12-04T04:42:58.612Z,5.37
2022-12-04T04:45:36.427Z,5.38
2022-12-04T04:48:12.903Z,5.40
2022-12-04T04:50:41.562Z,5.41
2022-12-04T04:53:33.954Z,5.41
2022-12-04T04:56:01.924Z,5.35
2022-12-04T04:58:28.550Z,5.28
2022-12-04T05:01:01.291Z,5.30
2022-12-04T05:03:29.311Z,5.26
2022-12-04T05:05:55.957Z,5.32
2022-12-04T05:08:23.236Z,5.33
2022-12-04T05:10:49.876Z,5.41
2022-12-04T05:13:17.707Z,5.47
2022-12-04T05:15:44.573Z,5.38
2022-12-04T05:18:11.599Z,5.40
2022-12-04T05:20:39.246Z,5.43
2022-12-04T05:23:07.279Z,5.46
2022-12-04T05:25:33.964Z,5.56
2022-12-04T05:28:00.675Z,5.56
2022-12-04T05:30:27.296Z,5.60
2022-12-04T05:32:54.117Z,5.58
2022-12-04T05:35:20.730Z,5.67
2022-12-04T05:37:48.197Z,5.68
2022-12-04T05:40:14.876Z,5.61
2022-12-04T05:42:41.596Z,5.54
2022-12-04T05:45:08.635Z,5.47
2022-12-04T05:47:43.171Z,5.42
2022-12-04T05:50:12.211Z,5.40
2022-12-04T05:52:39.201Z,5.41
2022-12-04T05:55:06.363Z,5.38
2022-12-04T05:57:32.998Z,5.38
2022-12-04T05:59:59.712Z,5.46
2022-12-04T06:02:26.471Z,5.46
2022-12-04T06:04:53.235Z,5.48
2022-12-04T06:07:19.986Z,5.52
2022-12-04T06:09:46.621Z,5.65
2022-12-04T06:12:13.197Z,5.59
2022-12-04T06:14:40.182Z,5.56
2022-12-04T06:17:06.940Z,5.51
2022-12-04T06:19:33.692Z,5.51
2022-12-04T06:22:00.247Z,5.47
2022-12-04T06:24:26.854Z,5.49
2022-12-04T06:27:26.243Z,5.53
2022-12-04T06:29:45.036Z,5.57
2022-12-04T06:32:14.019Z,5.55
2022-12-04T06:34:44.615Z,5.59
2022-12-04T06:37:11.366Z,5.58
2022-12-04T06:39:38.027Z,5.58
2022-12-04T06:42:04.687Z,5.58
2022-12-04T06:44:31.390Z,5.64
2022-12-04T06:47:00.967Z,5.66
2022-12-04T06:49:28.366Z,5.65
2022-12-04T06:51:55.046Z,5.62
2022-12-04T06:54:21.688Z,5.68
2022-12-04T06:56:49.793Z,5.76
2022-12-04T06:59:16.511Z,5.76
2022-12-04T07:01:43.341Z,5.81
2022-12-04T07:04:10.012Z,5.80
2022-12-04T07:06:38.966Z,5.80
2022-12-04T07:09:17.390Z,5.80
2022-12-04T07:11:45.010Z,5.79
2022-12-04T07:14:13.031Z,5.70
2022-12-04T07:16:42.026Z,5.70
2022-12-04T07:19:14.217Z,5.67
2022-12-04T07:21:41.836Z,5.73
2022-12-04T07:24:13.727Z,5.69
2022-12-04T07:26:40.522Z,5.69
2022-12-04T07:29:07.124Z,5.66
2022-12-04T07:31:33.769Z,5.65
2022-12-04T07:34:00.419Z,5.67
2022-12-04T07:36:27.503Z,5.67
2022-12-04T07:38:57.366Z,5.62
2022-12-04T07:41:24.523Z,5.61
2022-12-04T07:43:51.140Z,5.64
2022-12-04T07:46:24.508Z,5.75
2022-12-04T07:48:51.274Z,5.78
2022-12-04T07:51:20.803Z,5.80
2022-12-04T07:53:48.162Z,5.86
2022-12-04T07:56:15.550Z,5.82
2022-12-04T07:58:43.063Z,5.84
2022-12-04T08:01:15.606Z,5.86
2022-12-04T08:03:48.132Z,5.82
2022-12-04T08:06:17.486Z,5.81
2022-12-04T08:08:44.175Z,5.80
2022-12-04T08:11:13.679Z,5.82
2022-12-04T08:13:40.411Z,5.80
2022-12-04T08:16:09.227Z,5.76
2022-12-04T08:18:36.130Z,5.75
2022-12-04T08:21:11.572Z,5.73
2022-12-04T08:23:40.962Z,5.75
2022-12-04T08:26:08.815Z,5.77
2022-12-04T08:28:36.854Z,5.77
2022-12-04T08:31:12.786Z,5.81
2022-12-04T08:33:40.445Z,5.85
2022-12-04T08:36:09.787Z,5.88
2022-12-04T08:38:37.169Z,5.86
2022-12-04T08:41:06.289Z,5.88
2022-12-04T08:43:33.029Z,5.87
2022-12-04T08:46:02.669Z,5.94
2022-12-04T08:48:29.685Z,5.93
2022-12-04T08:50:56.249Z,5.96
2022-12-04T08:53:23.889Z,5.92
2022-12-04T08:55:51.029Z,5.97
2022-12-04T08:58:18.176Z,5.96
2022-12-04T09:00:45.062Z,5.95
2022-12-04T09:03:17.411Z,5.92
2022-12-04T09:05:48.036Z,5.80
2022-12-04T09:08:16.728Z,5.85
2022-12-04T09:10:44.171Z,5.83
2022-12-04T09:13:10.843Z,5.84
2022-12-04T09:15:41.404Z,5.82
2022-12-04T09:18:09.807Z,5.89
2022-12-04T09:20:36.915Z,5.84
2022-12-04T09:23:05.741Z,5.81
2022-12-04T09:25:36.710Z,5.73
2022-12-04T09:28:03.955Z,5.72
2022-12-04T09:30:30.492Z,5.68
2022-12-04T09:32:57.236Z,5.60
2022-12-04T09:35:24.102Z,5.57
2022-12-04T09:37:50.775Z,5.66
2022-12-04T09:40:43.125Z,5.63
2022-12-04T09:43:30.660Z,5.64
2022-12-04T09:46:08.212Z,5.66
2022-12-04T09:48:39.924Z,5.71
2022-12-04T09:51:16.303Z,5.79
2022-12-04T09:53:52.963Z,5.75
2022-12-04T09:56:21.237Z,5.73
2022-12-04T09:58:54.952Z,5.77
2022-12-04T10:01:32.885Z,5.80
2022-12-04T10:04:05.636Z,5.73
2022-12-04T10:06:39.179Z,5.68
2022-12-04T10:09:30.206Z,5.71
2022-12-04T10:12:29.116Z,5.69
2022-12-04T10:15:43.531Z,5.74
2022-12-04T10:18:24.803Z,5.78
2022-12-04T10:21:16.124Z,5.74
2022-12-04T10:23:51.906Z,5.76
2022-12-04T10:26:20.156Z,5.76
2022-12-04T10:28:55.463Z,5.76
2022-12-04T10:31:23.325Z,5.81
2022-12-04T10:34:05.598Z,5.76
2022-12-04T10:36:34.934Z,5.77
2022-12-04T10:39:01.644Z,5.78
2022-12-04T10:41:36.293Z,5.83
2022-12-04T10:44:03.039Z,5.84
2022-12-04T10:46:34.619Z,5.82
2022-12-04T10:49:06.857Z,5.81
2022-12-04T10:51:41.195Z,5.79
2022-12-04T10:54:32.857Z,5.82
2022-12-04T10:57:06.240Z,5.85
2022-12-04T10:59:33.272Z,5.85
2022-12-04T11:02:11.049Z,5.80
2022-12-04T11:04:38.194Z,5.83
2022-12-04T11:07:10.780Z,5.84
2022-12-04T11:09:38.127Z,5.79
2022-12-04T11:12:17.343Z,5.77
2022-12-04T11:14:47.143Z,5.79
2022-12-04T11:17:19.556Z,5.76
2022-12-04T11:19:46.285Z,5.78
2022-12-04T11:22:18.842Z,5.75
2022-12-04T11:24:56.642Z,5.73
2022-12-04T11:27:29.455Z,5.71
2022-12-04T11:29:56.787Z,5.71
2022-12-04T11:32:30.919Z,5.73
2022-12-04T11:35:17.435Z,5.72
2022-12-04T11:38:12.160Z,5.75
2022-12-04T11:40:39.422Z,5.84
2022-12-04T11:43:14.009Z,5.76
2022-12-04T11:45:41.246Z,5.78
2022-12-04T11:48:19.470Z,5.74
2022-12-04T11:50:58.505Z,5.74
2022-12-04T11:54:00.702Z,5.76
2022-12-04T11:56:48.783Z,5.75
2022-12-04T11:59:26.794Z,5.75
2022-12-04T12:02:16.458Z,5.80
2022-12-04T12:05:07.628Z,5.87
2022-12-04T12:08:03.195Z,5.89
2022-12-04T12:10:44.627Z,5.84
2022-12-04T12:13:26.394Z,5.88
2022-12-04T12:16:15.616Z,5.92
2022-12-04T12:18:54.413Z,5.93
2022-12-04T12:21:43.831Z,5.94
2022-12-04T12:24:53.394Z,5.93
2022-12-04T12:27:57.814Z,5.94
2022-12-04T12:30:28.920Z,5.96
2022-12-04T12:32:58.623Z,6.04
2022-12-04T12:35:35.314Z,6.07
2022-12-04T12:38:14.852Z,6.06
2022-12-04T12:40:53.367Z,6.07
2022-12-04T12:43:32.447Z,6.08
2022-12-04T12:46:11.426Z,6.07
2022-12-04T12:49:02.268Z,6.08
2022-12-04T12:51:37.970Z,6.05
2022-12-04T12:54:13.297Z,6.09
2022-12-04T12:56:49.544Z,5.98
2022-12-04T12:59:26.449Z,6.01
2022-12-04T13:02:01.026Z,5.92
2022-12-04T13:04:38.793Z,6.01
2022-12-04T13:07:18.255Z,5.96
2022-12-04T13:10:01.903Z,5.95
2022-12-04T13:12:29.133Z,5.93
2022-12-04T13:14:55.762Z,5.90
2022-12-04T13:17:39.501Z,5.92
2022-12-04T13:20:14.163Z,5.91
2022-12-04T13:23:14.783Z,5.95
2022-12-04T13:26:07.573Z,6.00
2022-12-04T13:28:46.247Z,6.03
2022-12-04T13:31:25.625Z,6.05
2022-12-04T13:34:31.370Z,6.05
2022-12-04T13:37:24.577Z,6.10
2022-12-04T13:40:26.619Z,6.16
2022-12-04T13:42:53.870Z,6.18
2022-12-04T13:45:32.204Z,6.24
2022-12-04T13:48:01.644Z,6.23
2022-12-04T13:50:35.375Z,6.28
2022-12-04T13:53:02.372Z,6.24
2022-12-04T13:55:35.690Z,6.25
2022-12-04T13:58:04.206Z,6.22
2022-12-04T14:00:34.698Z,6.21
2022-12-04T14:03:06.272Z,6.23
2022-12-04T14:05:41.521Z,6.16
2022-12-04T14:08:20.380Z,6.15
2022-12-04T14:11:05.361Z,6.22
2022-12-04T14:13:45.647Z,6.22
2022-12-04T14:16:30.183Z,6.10
2022-12-04T14:19:00.009Z,6.13
2022-12-04T14:21:39.095Z,6.20
2022-12-04T14:24:29.892Z,6.27
2022-12-04T14:27:11.327Z,6.29
2022-12-04T14:29:49.551Z,6.23
2022-12-04T14:32:21.604Z,6.26
2022-12-04T14:34:49.581Z,6.20
2022-12-04T14:37:25.595Z,6.20
2022-12-04T14:39:53.455Z,6.13
2022-12-04T14:42:23.323Z,6.22
2022-12-04T14:44:57.220Z,6.24
2022-12-04T14:47:52.980Z,6.30
2022-12-04T14:50:41.062Z,6.27
2022-12-04T14:53:13.293Z,6.26
2022-12-04T14:55:52.344Z,6.26
2022-12-04T14:58:32.507Z,6.26
2022-12-04T15:01:19.974Z,6.31
2022-12-04T15:03:53.514Z,6.28
2022-12-04T15:06:25.575Z,6.22
2022-12-04T15:09:15.417Z,6.16
2022-12-04T15:12:19.164Z,6.15
2022-12-04T15:14:48.415Z,6.15
2022-12-04T15:17:17.115Z,6.17
2022-12-04T15:19:44.305Z,6.19
2022-12-04T15:22:20.976Z,6.14
2022-12-04T15:24:47.884Z,6.20
2022-12-04T15:27:18.039Z,6.20
2022-12-04T15:29:48.435Z,6.23
2022-12-04T15:32:20.477Z,6.14
2022-12-04T15:35:05.795Z,6.14
2022-12-04T15:37:33.055Z,6.07
2022-12-04T15:40:00.223Z,6.05
2022-12-04T15:42:29.801Z,5.99
2022-12-04T15:45:03.703Z,6.11
2022-12-04T15:47:33.143Z,6.14
2022-12-04T15:50:18.086Z,6.16
2022-12-04T15:53:03.007Z,6.11
2022-12-04T15:55:32.416Z,6.11
2022-12-04T15:58:02.765Z,6.06
2022-12-04T16:00:42.360Z,6.12
2022-12-04T16:03:31.374Z,6.13
2022-12-04T16:06:13.206Z,6.19
2022-12-04T16:08:42.507Z,6.20
2022-12-04T16:11:18.367Z,6.13
2022-12-04T16:13:45.108Z,6.12
2022-12-04T16:16:15.096Z,6.13
2022-12-04T16:18:43.312Z,6.12
2022-12-04T16:21:16.307Z,6.09
2022-12-04T16:23:43.228Z,6.12
2022-12-04T16:26:13.298Z,6.19
2022-12-04T16:28:40.011Z,6.18
2022-12-04T16:31:06.954Z,6.17
2022-12-04T16:33:33.648Z,6.13
2022-12-04T16:36:00.311Z,6.12
2022-12-04T16:38:27.031Z,6.11
2022-12-04T16:40:53.647Z,6.13
2022-12-04T16:43:20.354Z,6.20
2022-12-04T16:45:51.738Z,6.19
2022-12-04T16:48:19.056Z,6.19
2022-12-04T16:50:46.319Z,6.17
2022-12-04T16:53:18.234Z,6.11
2022-12-04T16:55:47.393Z,6.04
2022-12-04T16:58:14.779Z,5.97
2022-12-04T17:00:43.742Z,5.96
2022-12-04T17:03:42.658Z,5.94
2022-12-04T17:06:09.520Z,5.91
2022-12-04T17:08:36.188Z,5.90
2022-12-04T17:11:03.343Z,5.91
2022-12-04T17:13:30.306Z,5.96
2022-12-04T17:15:58.579Z,5.99
2022-12-04T17:18:25.283Z,6.02
2022-12-04T17:20:51.927Z,6.06
2022-12-04T17:23:18.594Z,6.05
2022-12-04T17:25:45.339Z,6.08
2022-12-04T17:28:11.935Z,6.15
2022-12-04T17:30:38.609Z,6.23
2022-12-04T17:33:05.501Z,6.18
2022-12-04T17:35:32.187Z,6.22
2022-12-04T17:38:05.416Z,6.20
2022-12-04T17:40:33.506Z,6.20
2022-12-04T17:43:00.228Z,6.22
2022-12-04T17:45:26.961Z,6.24
2022-12-04T17:47:53.530Z,6.32
2022-12-04T17:50:20.263Z,6.26
2022-12-04T17:52:47.070Z,6.25
2022-12-04T17:55:13.989Z,6.29
2022-12-04T17:57:40.677Z,6.26
2022-12-04T18:00:08.195Z,6.29
2022-12-04T18:02:41.674Z,6.33
2022-12-04T18:05:09.271Z,6.35
2022-12-04T18:07:35.926Z,6.36
2022-12-04T18:10:02.796Z,6.35
2022-12-04T18:12:29.518Z,6.27
2022-12-04T18:14:56.781Z,6.22
2022-12-04T18:17:23.587Z,6.27
2022-12-04T18:19:50.367Z,6.24
2022-12-04T18:22:17.174Z,6.23
2022-12-04T18:24:43.997Z,6.19
2022-12-04T18:27:10.944Z,6.19
2022-12-04T18:29:38.860Z,6.23
2022-12-04T18:32:06.119Z,6.10
2022-12-04T18:34:32.982Z,6.24
2022-12-04T18:36:59.891Z,6.23
2022-12-04T18:39:26.811Z,6.27
2022-12-04T18:41:57.118Z,6.22
2022-12-04T18:44:24.464Z,6.19
2022-12-04T18:46:51.273Z,6.22
2022-12-04T18:49:17.978Z,6.10
2022-12-04T18:51:49.598Z,6.24
2022-12-04T18:54:23.111Z,6.22
2022-12-04T18:56:51.070Z,6.25
2022-12-04T18:59:22.161Z,5.94
2022-12-04T19:01:51.817Z,6.13
2022-12-04T19:04:20.336Z,6.15
2022-12-04T19:06:51.657Z,6.12
2022-12-04T19:09:35.383Z,6.20
2022-12-04T19:12:09.021Z,6.17
2022-12-04T19:14:35.750Z,6.17
2022-12-04T19:17:02.701Z,6.17
2022-12-04T19:19:31.739Z,6.19
2022-12-04T19:21:59.045Z,6.17
2022-12-04T19:24:25.657Z,6.11
2022-12-04T19:26:54.026Z,6.12
2022-12-04T19:29:20.661Z,6.13
2022-12-04T19:31:47.491Z,6.15
2022-12-04T19:34:14.323Z,6.15
2022-12-04T19:36:41.735Z,6.16
2022-12-04T19:39:08.603Z,6.23
2022-12-04T19:41:37.178Z,6.17
2022-12-04T19:44:25.947Z,6.26
2022-12-04T19:46:51.109Z,6.22
2022-12-04T19:49:17.643Z,6.27
2022-12-04T19:51:44.575Z,6.27
2022-12-04T19:54:13.432Z,6.22
2022-12-04T19:56:40.318Z,6.24
2022-12-04T19:59:08.517Z,6.31
2022-12-04T20:01:35.886Z,6.27
2022-12-04T20:04:05.757Z,6.30
2022-12-04T20:06:42.792Z,6.27
2022-12-04T20:09:13.113Z,6.27
2022-12-04T20:11:40.612Z,6.27
2022-12-04T20:14:08.372Z,6.22
2022-12-04T20:16:36.584Z,6.25
2022-12-04T20:19:05.182Z,6.23
2022-12-04T20:21:32.615Z,6.31
2022-12-04T20:24:03.953Z,6.30
2022-12-04T20:26:33.868Z,6.31
2022-12-04T20:29:01.460Z,6.31
2022-12-04T20:31:34.855Z,6.30
2022-12-04T20:34:04.775Z,6.32
2022-12-04T20:36:37.275Z,6.33
2022-12-04T20:39:04.912Z,6.26
2022-12-04T20:41:32.054Z,6.28
2022-12-04T20:44:00.767Z,6.22
2022-12-04T20:46:33.389Z,6.27
2022-12-04T20:49:01.922Z,6.26
2022-12-04T20:51:31.313Z,6.20
2022-12-04T20:53:59.398Z,6.25
2022-12-04T20:56:33.052Z,6.23
2022-12-04T20:59:03.284Z,6.24
2022-12-04T21:01:30.315Z,6.24
2022-12-04T21:03:59.242Z,6.33
2022-12-04T21:06:35.039Z,6.38
2022-12-04T21:09:06.078Z,6.34
2022-12-04T21:11:34.651Z,6.31
2022-12-04T21:14:21.858Z,6.31
2022-12-04T21:16:49.032Z,6.22
2022-12-04T21:19:19.598Z,6.15
2022-12-04T21:21:47.030Z,6.23
2022-12-04T21:24:15.868Z,6.31
2022-12-04T21:26:42.797Z,6.33
2022-12-04T21:29:09.877Z,6.34
2022-12-04T21:31:37.830Z,6.31
2022-12-04T21:34:07.306Z,6.29
2022-12-04T21:36:34.706Z,6.28
2022-12-04T21:39:01.535Z,6.33
2022-12-04T21:41:46.671Z,6.34
2022-12-04T21:44:16.904Z,6.34
2022-12-04T21:46:44.946Z,6.33
2022-12-04T21:49:12.662Z,6.30
2022-12-04T21:51:56.818Z,6.31
2022-12-04T21:54:25.288Z,6.41
2022-12-04T21:56:52.034Z,6.37
2022-12-04T21:59:18.813Z,6.33
2022-12-04T22:01:45.824Z,6.29
2022-12-04T22:04:12.770Z,6.29
2022-12-04T22:06:39.842Z,6.41
2022-12-04T22:09:08.525Z,6.39
2022-12-04T22:11:35.111Z,6.36
2022-12-04T22:14:01.853Z,6.30
2022-12-04T22:16:30.998Z,6.24
2022-12-04T22:18:59.195Z,6.25
2022-12-04T22:21:28.103Z,6.29
2022-12-04T22:24:00.122Z,6.32
2022-12-04T22:26:28.135Z,6.33
2022-12-04T22:28:55.216Z,6.31
2022-12-04T22:31:25.438Z,6.31
2022-12-04T22:33:54.191Z,6.34
2022-12-04T22:36:23.520Z,6.38
2022-12-04T22:39:09.939Z,6.44
2022-12-04T22:41:37.897Z,6.48
2022-12-04T22:44:05.344Z,6.42
2022-12-04T22:46:32.348Z,6.39
2022-12-04T22:48:59.952Z,6.41
2022-12-04T22:51:27.693Z,6.40
2022-12-04T22:53:56.981Z,6.39
2022-12-04T22:56:29.080Z,6.30
2022-12-04T22:58:57.884Z,6.29
2022-12-04T23:01:30.584Z,6.35
2022-12-04T23:03:58.006Z,6.33
2022-12-04T23:06:26.799Z,6.35
2022-12-04T23:09:02.002Z,6.35
2022-12-04T23:11:29.268Z,6.30
2022-12-04T23:14:01.252Z,6.29
2022-12-04T23:16:30.162Z,6.31
2022-12-04T23:18:57.733Z,6.30
2022-12-04T23:21:25.474Z,6.30
2022-12-04T23:23:53.857Z,6.37
2022-12-04T23:26:23.384Z,6.34
2022-12-04T23:28:50.011Z,6.33
2022-12-04T23:31:17.168Z,6.30
2022-12-04T23:33:43.783Z,6.25
2022-12-04T23:36:12.239Z,6.30
2022-12-04T23:38:40.741Z,6.29
2022-12-04T23:41:16.155Z,6.28
2022-12-04T23:43:44.223Z,6.31
2022-12-04T23:46:12.846Z,6.34
2022-12-04T23:48:41.188Z,6.38
2022-12-04T23:51:10.159Z,6.33
2022-12-04T23:53:37.171Z,6.24
2022-12-04T23:56:14.219Z,6.34
2022-12-04T23:58:41.409Z,6.31
